createdAt,value
2018-03-06T00:00:37.607Z,67.08
2018-03-06T00:03:05.912Z,66.84
2018-03-06T00:05:34.241Z,68.28
2018-03-06T00:08:02.560Z,69.57
2018-03-06T00:10:30.857Z,70.26
2018-03-06T00:13:00.017Z,70.85
2018-03-06T00:15:28.384Z,70.82
2018-03-06T00:17:56.687Z,69.53
2018-03-06T00:20:24.969Z,68.84
2018-03-06T00:22:53.255Z,68.28
2018-03-06T00:25:21.519Z,68.58
2018-03-06T00:27:49.805Z,68.47
2018-03-06T00:30:18.069Z,68.67
2018-03-06T00:32:46.352Z,69.60
2018-03-06T00:35:14.653Z,69.93
2018-03-06T00:37:42.951Z,69.68
2018-03-06T00:40:11.229Z,69.70
2018-03-06T00:42:39.541Z,69.55
2018-03-06T00:45:07.819Z,70.14
2018-03-06T00:47:36.121Z,69.80
2018-03-06T00:50:04.428Z,69.24
2018-03-06T00:52:32.732Z,69.77
2018-03-06T00:55:01.006Z,71.09
2018-03-06T00:57:29.320Z,72.50
2018-03-06T00:59:57.606Z,73.62
2018-03-06T01:02:25.872Z,74.68
2018-03-06T01:04:54.187Z,75.54
2018-03-06T01:07:22.485Z,75.53
2018-03-06T01:09:50.791Z,74.45
2018-03-06T01:12:19.054Z,73.52
2018-03-06T01:14:47.357Z,73.13
2018-03-06T01:17:15.640Z,73.04
2018-03-06T01:19:43.947Z,73.28
2018-03-06T01:22:12.250Z,72.73
2018-03-06T01:24:40.573Z,72.27
2018-03-06T01:27:08.835Z,72.41
2018-03-06T01:29:37.188Z,71.85
2018-03-06T01:32:05.473Z,71.27
2018-03-06T01:34:33.763Z,71.20
2018-03-06T01:37:02.067Z,70.65
2018-03-06T01:39:30.376Z,70.59
2018-03-06T01:41:58.635Z,70.39
2018-03-06T01:44:26.947Z,71.29
2018-03-06T01:46:55.229Z,71.32
2018-03-06T01:49:23.515Z,71.16
2018-03-06T01:51:58.555Z,71.04
2018-03-06T01:54:26.849Z,70.92
2018-03-06T01:56:55.113Z,70.70
2018-03-06T01:59:23.396Z,70.04
2018-03-06T02:01:51.679Z,70.13
2018-03-06T02:04:20.008Z,70.74
2018-03-06T02:06:48.290Z,70.97
2018-03-06T02:09:16.973Z,71.02
2018-03-06T02:11:45.282Z,71.24
2018-03-06T02:14:13.552Z,71.05
2018-03-06T02:16:41.827Z,71.38
2018-03-06T02:19:10.124Z,71.45
2018-03-06T02:21:38.415Z,71.35
2018-03-06T02:24:06.687Z,71.52
2018-03-06T02:26:35.241Z,71.49
2018-03-06T02:29:04.312Z,71.52
2018-03-06T02:31:32.619Z,71.45
2018-03-06T02:34:00.925Z,71.58
2018-03-06T02:36:29.209Z,71.67
2018-03-06T02:38:57.484Z,71.40
2018-03-06T02:41:25.828Z,71.17
2018-03-06T02:43:54.102Z,71.33
2018-03-06T02:46:22.453Z,71.30
2018-03-06T02:48:50.712Z,71.52
2018-03-06T02:51:19.007Z,71.42
2018-03-06T02:53:47.274Z,71.84
2018-03-06T02:56:15.642Z,71.45
2018-03-06T02:58:43.931Z,71.79
2018-03-06T03:01:12.202Z,71.79
2018-03-06T03:03:40.496Z,71.18
2018-03-06T03:06:08.783Z,70.93
2018-03-06T03:08:37.120Z,71.34
2018-03-06T03:11:05.527Z,71.94
2018-03-06T03:13:33.865Z,71.83
2018-03-06T03:16:02.140Z,72.56
2018-03-06T03:18:30.433Z,72.89
2018-03-06T03:20:58.723Z,72.39
2018-03-06T03:23:27.023Z,72.34
2018-03-06T03:25:55.325Z,71.76
2018-03-06T03:28:23.640Z,71.58
2018-03-06T03:30:51.933Z,71.53
2018-03-06T03:33:20.566Z,71.35
2018-03-06T03:35:48.849Z,71.17
2018-03-06T03:38:17.157Z,71.51
2018-03-06T03:40:45.423Z,71.47
2018-03-06T03:43:13.727Z,71.53
2018-03-06T03:45:42.003Z,71.42
2018-03-06T03:48:10.353Z,71.14
2018-03-06T03:50:38.624Z,70.91
2018-03-06T03:53:06.929Z,72.77
2018-03-06T03:55:35.218Z,72.76
2018-03-06T03:58:03.516Z,72.67
2018-03-06T04:00:31.834Z,72.18
2018-03-06T04:03:00.123Z,71.66
2018-03-06T04:05:28.415Z,71.06
2018-03-06T04:07:56.686Z,71.17
2018-03-06T04:10:24.981Z,70.79
2018-03-06T04:12:53.245Z,70.82
2018-03-06T04:15:22.759Z,70.77
2018-03-06T04:17:51.026Z,70.78
2018-03-06T04:20:19.354Z,70.22
2018-03-06T04:22:47.626Z,70.02
2018-03-06T04:25:15.952Z,70.01
2018-03-06T04:27:44.222Z,70.26
2018-03-06T04:30:12.515Z,69.46
2018-03-06T04:32:40.788Z,69.89
2018-03-06T04:35:09.388Z,70.71
2018-03-06T04:37:37.696Z,71.07
2018-03-06T04:40:05.996Z,71.42
2018-03-06T04:42:34.282Z,71.20
2018-03-06T04:45:02.783Z,70.99
2018-03-06T04:47:31.063Z,71.11
2018-03-06T04:49:59.416Z,70.66
2018-03-06T04:52:27.731Z,70.91
2018-03-06T04:54:56.087Z,70.73
2018-03-06T04:57:24.383Z,70.20
2018-03-06T04:59:52.658Z,70.05
2018-03-06T05:02:20.952Z,70.03
2018-03-06T05:04:49.453Z,70.32
2018-03-06T05:07:17.791Z,70.31
2018-03-06T05:09:46.063Z,70.58
2018-03-06T05:12:14.376Z,70.64
2018-03-06T05:14:42.627Z,70.74
2018-03-06T05:17:10.987Z,70.52
2018-03-06T05:19:39.267Z,71.04
2018-03-06T05:22:07.580Z,70.83
2018-03-06T05:24:35.862Z,71.60
2018-03-06T05:27:04.171Z,71.10
2018-03-06T05:29:32.475Z,71.06
2018-03-06T05:32:00.800Z,71.27
2018-03-06T05:34:29.177Z,71.06
2018-03-06T05:36:57.504Z,71.88
2018-03-06T05:39:25.791Z,72.66
2018-03-06T05:41:54.157Z,72.27
2018-03-06T05:44:22.455Z,72.02
2018-03-06T05:49:18.166Z,71.27
2018-03-06T05:51:46.450Z,71.15
2018-03-06T05:54:14.732Z,71.24
2018-03-06T05:56:43.020Z,70.84
2018-03-06T05:59:11.353Z,70.84
2018-03-06T06:01:39.658Z,70.89
2018-03-06T06:04:08.008Z,70.89
2018-03-06T06:06:36.313Z,70.93
2018-03-06T06:09:05.127Z,71.28
2018-03-06T06:11:33.389Z,70.49
2018-03-06T06:14:01.776Z,71.11
2018-03-06T06:16:30.036Z,70.32
2018-03-06T06:18:58.341Z,70.32
2018-03-06T06:21:26.613Z,70.00
2018-03-06T06:23:54.924Z,70.60
2018-03-06T06:26:23.253Z,71.00
2018-03-06T06:28:51.565Z,71.35
2018-03-06T06:31:19.854Z,71.23
2018-03-06T06:33:48.153Z,71.21
2018-03-06T06:36:16.468Z,71.41
2018-03-06T06:38:44.809Z,71.31
2018-03-06T06:41:13.114Z,71.18
2018-03-06T06:43:41.421Z,70.65
2018-03-06T06:46:09.747Z,70.87
2018-03-06T06:48:38.134Z,70.68
2018-03-06T06:51:06.447Z,70.58
2018-03-06T06:53:34.772Z,70.23
2018-03-06T06:56:03.089Z,70.25
2018-03-06T06:58:31.379Z,70.06
2018-03-06T07:00:59.705Z,70.54
2018-03-06T07:03:28.001Z,70.59
2018-03-06T07:05:56.294Z,70.29
2018-03-06T07:08:24.568Z,70.38
2018-03-06T07:10:53.002Z,70.59
2018-03-06T07:13:21.313Z,70.59
2018-03-06T07:15:49.623Z,70.44
2018-03-06T07:18:17.902Z,70.33
2018-03-06T07:20:46.212Z,70.20
2018-03-06T07:23:14.502Z,69.96
2018-03-06T07:25:42.788Z,69.21
2018-03-06T07:28:11.084Z,68.80
2018-03-06T07:30:39.364Z,68.74
2018-03-06T07:33:07.715Z,68.58
2018-03-06T07:35:36.025Z,69.00
2018-03-06T07:38:04.362Z,69.18
2018-03-06T07:40:32.619Z,69.69
2018-03-06T07:43:00.903Z,69.31
2018-03-06T07:45:29.211Z,69.39
2018-03-06T07:47:57.536Z,69.14
2018-03-06T07:50:25.842Z,69.46
2018-03-06T07:52:54.135Z,69.23
2018-03-06T07:55:22.414Z,68.93
2018-03-06T07:57:50.716Z,68.50
2018-03-06T08:00:19.006Z,68.06
2018-03-06T08:02:47.301Z,68.09
2018-03-06T08:05:15.576Z,68.09
2018-03-06T08:07:43.899Z,68.11
2018-03-06T08:10:12.291Z,68.16
2018-03-06T08:12:40.608Z,68.00
2018-03-06T08:15:08.871Z,67.49
2018-03-06T08:17:37.160Z,67.22
2018-03-06T08:20:05.523Z,67.50
2018-03-06T08:22:33.873Z,67.51
2018-03-06T08:25:02.171Z,68.00
2018-03-06T08:27:30.451Z,67.93
2018-03-06T08:29:58.827Z,68.13
2018-03-06T08:32:29.543Z,68.17
2018-03-06T08:34:57.822Z,67.61
2018-03-06T08:37:26.141Z,67.47
2018-03-06T08:39:54.503Z,67.11
2018-03-06T08:42:22.836Z,67.13
2018-03-06T08:44:51.946Z,66.73
2018-03-06T08:47:20.272Z,66.27
2018-03-06T08:49:48.806Z,65.76
2018-03-06T08:52:17.075Z,65.75
2018-03-06T08:54:45.379Z,66.21
2018-03-06T08:57:14.088Z,65.34
2018-03-06T08:59:42.433Z,65.37
2018-03-06T09:02:10.810Z,64.71
2018-03-06T09:04:39.727Z,64.02
2018-03-06T09:07:07.992Z,63.96
2018-03-06T09:09:36.385Z,64.36
2018-03-06T09:12:04.663Z,64.21
2018-03-06T09:14:33.084Z,64.05
2018-03-06T09:17:01.383Z,62.85
2018-03-06T09:19:29.725Z,62.36
2018-03-06T09:21:57.985Z,61.05
2018-03-06T09:24:26.327Z,60.71
2018-03-06T09:26:54.641Z,60.72
2018-03-06T09:29:22.955Z,58.87
2018-03-06T09:31:51.381Z,58.43
2018-03-06T09:34:19.640Z,58.78
2018-03-06T09:36:47.921Z,57.62
2018-03-06T09:39:16.232Z,58.16
2018-03-06T09:41:44.628Z,58.25
2018-03-06T09:44:13.052Z,57.72
2018-03-06T09:46:41.341Z,56.70
2018-03-06T09:49:09.906Z,56.95
2018-03-06T09:51:38.199Z,57.02
2018-03-06T09:54:06.514Z,56.50
2018-03-06T09:56:34.828Z,56.59
2018-03-06T09:59:03.096Z,56.69
2018-03-06T10:01:31.434Z,57.36
2018-03-06T10:03:59.785Z,56.85
2018-03-06T10:06:28.099Z,55.93
2018-03-06T10:08:56.451Z,56.04
2018-03-06T10:11:24.830Z,55.53
2018-03-06T10:13:53.103Z,55.10
2018-03-06T10:16:21.510Z,55.72
2018-03-06T10:18:49.791Z,55.65
2018-03-06T10:21:18.126Z,54.64
2018-03-06T10:23:46.457Z,54.56
2018-03-06T10:26:14.845Z,54.16
2018-03-06T10:28:43.126Z,53.96
2018-03-06T10:31:11.576Z,53.61
2018-03-06T10:33:39.804Z,53.85
2018-03-06T10:36:08.091Z,53.38
2018-03-06T10:38:36.990Z,53.52
2018-03-06T10:41:05.848Z,53.54
2018-03-06T10:43:34.152Z,52.61
2018-03-06T10:46:03.152Z,52.43
2018-03-06T10:48:31.513Z,52.10
2018-03-06T10:50:59.842Z,52.18
2018-03-06T10:53:28.739Z,52.78
2018-03-06T10:55:57.045Z,51.77
2018-03-06T10:58:25.357Z,51.70
2018-03-06T11:00:54.560Z,52.18
2018-03-06T11:03:22.969Z,52.00
2018-03-06T11:05:51.244Z,51.05
2018-03-06T11:08:19.619Z,50.26
2018-03-06T11:10:47.849Z,50.31
2018-03-06T11:13:16.174Z,50.32
2018-03-06T11:15:44.505Z,50.15
2018-03-06T11:18:12.865Z,49.31
2018-03-06T11:20:41.232Z,49.19
2018-03-06T11:23:09.521Z,49.89
2018-03-06T11:25:38.195Z,49.86
2018-03-06T11:28:06.512Z,49.49
2018-03-06T11:30:34.818Z,49.00
2018-03-06T11:33:03.123Z,49.33
2018-03-06T11:35:31.421Z,49.24
2018-03-06T11:37:59.878Z,48.93
2018-03-06T11:40:28.169Z,49.18
2018-03-06T11:42:57.245Z,49.32
2018-03-06T11:45:26.427Z,48.60
2018-03-06T11:47:55.144Z,48.22
2018-03-06T11:50:23.492Z,48.69
2018-03-06T11:52:51.794Z,49.76
2018-03-06T11:55:20.230Z,50.31
2018-03-06T11:57:48.518Z,50.96
2018-03-06T12:00:16.852Z,51.24
2018-03-06T12:02:45.139Z,50.61
2018-03-06T12:05:13.456Z,50.21
2018-03-06T12:07:42.068Z,50.22
2018-03-06T12:10:10.488Z,50.13
2018-03-06T12:12:39.481Z,49.50
2018-03-06T12:15:07.848Z,48.52
2018-03-06T12:17:36.138Z,48.39
2018-03-06T12:20:04.461Z,47.55
2018-03-06T12:22:32.764Z,46.30
2018-03-06T12:25:01.887Z,46.31
2018-03-06T12:27:30.151Z,46.20
2018-03-06T12:29:58.484Z,46.13
2018-03-06T12:32:26.872Z,46.61
2018-03-06T12:34:55.141Z,46.24
2018-03-06T12:37:23.559Z,46.53
2018-03-06T12:39:51.878Z,46.52
2018-03-06T12:42:20.169Z,45.78
2018-03-06T12:44:48.734Z,46.42
2018-03-06T12:47:17.173Z,46.36
2018-03-06T12:49:45.473Z,46.76
2018-03-06T12:52:13.826Z,47.04
2018-03-06T12:54:42.132Z,47.35
2018-03-06T12:57:10.476Z,47.52
2018-03-06T12:59:38.784Z,47.16
2018-03-06T13:02:07.099Z,47.30
2018-03-06T13:04:35.389Z,46.94
2018-03-06T13:07:03.750Z,46.97
2018-03-06T13:09:32.174Z,46.88
2018-03-06T13:12:00.489Z,47.99
2018-03-06T13:14:28.783Z,48.29
2018-03-06T13:16:57.145Z,46.78
2018-03-06T13:19:25.492Z,47.08
2018-03-06T13:21:53.824Z,46.84
2018-03-06T13:24:22.095Z,46.32
2018-03-06T13:26:50.412Z,45.88
2018-03-06T13:29:18.741Z,45.94
2018-03-06T13:31:47.107Z,45.23
2018-03-06T13:34:15.426Z,45.60
2018-03-06T13:36:43.728Z,45.57
2018-03-06T13:39:12.004Z,45.63
2018-03-06T13:41:40.474Z,46.11
2018-03-06T13:44:08.789Z,46.20
2018-03-06T13:46:37.699Z,46.14
2018-03-06T13:49:06.117Z,47.04
2018-03-06T13:51:34.485Z,47.36
2018-03-06T13:54:02.881Z,47.43
2018-03-06T13:56:31.193Z,47.55
2018-03-06T13:58:59.616Z,48.31
2018-03-06T14:01:28.688Z,48.51
2018-03-06T14:03:56.983Z,48.71
2018-03-06T14:06:25.264Z,49.62
2018-03-06T14:08:53.611Z,49.77
2018-03-06T14:11:21.898Z,49.59
2018-03-06T14:13:50.196Z,49.88
2018-03-06T14:16:18.513Z,49.33
2018-03-06T14:18:46.776Z,49.32
2018-03-06T14:21:15.145Z,49.64
2018-03-06T14:23:43.995Z,49.40
2018-03-06T14:26:12.276Z,48.82
2018-03-06T14:28:40.590Z,48.87
2018-03-06T14:31:08.865Z,48.99
2018-03-06T14:33:37.966Z,49.01
2018-03-06T14:36:06.956Z,49.29
2018-03-06T14:38:35.284Z,49.27
2018-03-06T14:41:04.336Z,49.03
2018-03-06T14:43:32.661Z,49.13
2018-03-06T14:46:00.987Z,48.62
2018-03-06T14:48:29.320Z,48.70
2018-03-06T14:50:57.641Z,48.87
2018-03-06T14:53:25.915Z,49.21
2018-03-06T14:55:54.216Z,48.91
2018-03-06T14:58:22.497Z,48.34
2018-03-06T15:00:51.674Z,48.26
2018-03-06T15:03:20.024Z,48.17
2018-03-06T15:05:48.384Z,48.08
2018-03-06T15:08:16.662Z,48.30
2018-03-06T15:10:45.019Z,48.56
2018-03-06T15:13:13.550Z,49.39
2018-03-06T15:15:42.001Z,49.70
2018-03-06T15:18:10.324Z,49.97
2018-03-06T15:20:39.353Z,50.41
2018-03-06T15:23:07.633Z,50.84
2018-03-06T15:25:35.981Z,51.34
2018-03-06T15:28:04.898Z,51.88
2018-03-06T15:30:33.208Z,52.06
2018-03-06T15:33:01.549Z,52.23
2018-03-06T15:35:29.876Z,52.53
2018-03-06T15:37:58.136Z,52.72
2018-03-06T15:40:27.025Z,52.85
2018-03-06T15:42:55.405Z,53.30
2018-03-06T15:45:23.774Z,53.29
2018-03-06T15:47:51.986Z,53.36
2018-03-06T15:52:55.376Z,52.91
2018-03-06T15:55:23.649Z,52.59
2018-03-06T15:57:51.968Z,52.47
2018-03-06T16:00:20.258Z,52.74
2018-03-06T16:02:48.620Z,52.88
2018-03-06T16:05:18.370Z,52.96
2018-03-06T16:07:47.437Z,53.41
2018-03-06T16:10:15.745Z,53.45
2018-03-06T16:12:44.068Z,53.37
2018-03-06T16:15:14.124Z,53.21
2018-03-06T16:17:42.503Z,53.10
2018-03-06T16:20:10.904Z,52.73
2018-03-06T16:22:39.227Z,52.79
2018-03-06T16:25:08.106Z,52.98
2018-03-06T16:27:36.870Z,53.21
2018-03-06T16:30:05.305Z,53.51
2018-03-06T16:32:33.698Z,53.55
2018-03-06T16:35:02.829Z,53.49
2018-03-06T16:37:32.645Z,53.35
2018-03-06T16:40:00.953Z,53.72
2018-03-06T16:42:29.358Z,53.68
2018-03-06T16:44:57.723Z,53.55
2018-03-06T16:47:26.228Z,53.42
2018-03-06T16:49:54.513Z,53.85
2018-03-06T16:52:22.857Z,53.76
2018-03-06T16:54:51.134Z,53.79
2018-03-06T16:57:19.669Z,54.04
2018-03-06T16:59:48.097Z,54.58
2018-03-06T17:02:16.427Z,55.33
2018-03-06T17:04:44.763Z,55.67
2018-03-06T17:07:13.670Z,55.97
2018-03-06T17:09:42.021Z,56.31
2018-03-06T17:12:10.462Z,57.10
2018-03-06T17:14:38.836Z,57.56
2018-03-06T17:17:07.156Z,57.98
2018-03-06T17:19:35.471Z,57.76
2018-03-06T17:22:03.830Z,57.96
2018-03-06T17:24:32.195Z,58.29
2018-03-06T17:27:01.363Z,58.42
2018-03-06T17:29:29.729Z,58.29
2018-03-06T17:31:59.234Z,58.65
2018-03-06T17:34:27.688Z,58.63
2018-03-06T17:36:56.024Z,58.92
2018-03-06T17:39:24.363Z,59.13
2018-03-06T17:41:52.696Z,59.04
2018-03-06T17:44:20.989Z,59.40
2018-03-06T17:46:49.336Z,59.76
2018-03-06T17:49:19.806Z,59.93
2018-03-06T17:51:48.212Z,60.37
2018-03-06T17:54:16.596Z,60.51
2018-03-06T17:56:45.108Z,61.32
2018-03-06T17:59:13.403Z,61.17
2018-03-06T18:01:41.733Z,61.40
2018-03-06T18:04:10.162Z,61.30
2018-03-06T18:06:39.741Z,61.50
2018-03-06T18:09:08.052Z,62.19
2018-03-06T18:11:36.367Z,62.05
2018-03-06T18:14:05.076Z,62.19
2018-03-06T18:16:33.383Z,62.24
2018-03-06T18:19:02.052Z,62.20
2018-03-06T18:21:30.465Z,62.04
2018-03-06T18:23:58.909Z,62.52
2018-03-06T18:26:27.486Z,62.74
2018-03-06T18:28:55.776Z,62.79
2018-03-06T18:31:24.157Z,62.89
2018-03-06T18:33:52.523Z,63.36
2018-03-06T18:36:27.154Z,64.36
2018-03-06T18:38:56.817Z,65.25
2018-03-06T18:41:25.138Z,65.18
2018-03-06T18:43:53.420Z,65.35
2018-03-06T18:46:21.746Z,65.93
2018-03-06T18:48:50.081Z,65.85
2018-03-06T18:51:18.408Z,66.06
2018-03-06T18:53:48.488Z,66.31
2018-03-06T18:56:16.811Z,66.92
2018-03-06T18:58:45.152Z,67.21
2018-03-06T19:04:27.866Z,68.74
2018-03-06T19:07:06.864Z,69.05
2018-03-06T19:09:35.192Z,69.66
2018-03-06T19:12:03.647Z,69.50
2018-03-06T19:14:32.664Z,70.38
2018-03-06T19:17:01.031Z,71.00
2018-03-06T19:19:29.363Z,71.03
2018-03-06T19:21:57.668Z,71.12
2018-03-06T19:24:26.047Z,71.44
2018-03-06T19:26:54.367Z,72.06
2018-03-06T19:29:22.672Z,72.19
2018-03-06T19:31:50.958Z,71.89
2018-03-06T19:34:19.262Z,71.72
2018-03-06T19:36:48.477Z,72.06
2018-03-06T19:39:16.798Z,72.93
2018-03-06T19:41:45.088Z,73.36
2018-03-06T19:44:13.437Z,73.20
2018-03-06T19:46:41.788Z,73.53
2018-03-06T19:49:10.145Z,73.15
2018-03-06T19:51:38.434Z,72.94
2018-03-06T19:54:06.790Z,73.20
2018-03-06T19:56:35.081Z,73.35
2018-03-06T19:59:03.445Z,73.14
2018-03-06T20:01:31.994Z,72.98
2018-03-06T20:04:00.403Z,73.14
2018-03-06T20:06:29.616Z,72.70
2018-03-06T20:08:57.914Z,72.89
2018-03-06T20:11:26.745Z,72.92
2018-03-06T20:16:30.018Z,73.18
2018-03-06T20:19:03.885Z,73.21
2018-03-06T20:21:32.808Z,72.83
2018-03-06T20:24:06.782Z,72.52
2018-03-06T20:26:35.098Z,72.49
2018-03-06T20:29:03.390Z,72.32
2018-03-06T20:31:37.367Z,72.38
2018-03-06T20:34:05.659Z,72.71
2018-03-06T20:36:34.027Z,72.36
2018-03-06T20:42:07.758Z,72.45
2018-03-06T20:44:38.429Z,72.20
2018-03-06T20:47:12.372Z,71.82
2018-03-06T20:49:40.660Z,71.95
2018-03-06T20:52:09.001Z,72.13
2018-03-06T20:54:42.841Z,71.64
2018-03-06T20:57:11.169Z,71.29
2018-03-06T20:59:39.559Z,70.93
2018-03-06T21:02:07.906Z,71.09
2018-03-06T21:04:36.199Z,71.08
2018-03-06T21:07:04.555Z,71.02
2018-03-06T21:09:32.928Z,71.22
2018-03-06T21:12:01.240Z,70.84
2018-03-06T21:14:29.571Z,70.45
2018-03-06T21:16:57.922Z,70.31
2018-03-06T21:19:26.268Z,70.71
2018-03-06T21:21:54.646Z,70.31
2018-03-06T21:24:23.076Z,70.12
2018-03-06T21:26:51.362Z,69.91
2018-03-06T21:29:19.685Z,70.00
2018-03-06T21:31:48.018Z,69.65
2018-03-06T21:34:16.318Z,69.05
2018-03-06T21:36:44.609Z,69.17
2018-03-06T21:39:12.927Z,69.39
2018-03-06T21:41:41.196Z,69.12
2018-03-06T21:44:09.512Z,69.19
2018-03-06T21:46:37.857Z,69.20
2018-03-06T21:49:10.460Z,69.22
2018-03-06T21:51:38.760Z,69.37
2018-03-06T21:54:07.080Z,69.57
2018-03-06T21:56:35.389Z,69.88
2018-03-06T21:59:04.321Z,70.12
2018-03-06T22:01:32.813Z,70.34
2018-03-06T22:04:01.126Z,70.17
2018-03-06T22:06:29.410Z,70.29
2018-03-06T22:08:57.740Z,70.49
2018-03-06T22:11:26.032Z,70.21
2018-03-06T22:13:54.416Z,70.22
2018-03-06T22:16:22.729Z,70.31
2018-03-06T22:18:51.015Z,70.69
2018-03-06T22:21:19.311Z,70.60
2018-03-06T22:23:47.591Z,70.45
2018-03-06T22:26:15.939Z,70.29
2018-03-06T22:28:44.210Z,70.28
2018-03-06T22:31:12.530Z,70.67
2018-03-06T22:33:40.800Z,71.05
2018-03-06T22:36:09.201Z,71.65
2018-03-06T22:38:37.459Z,72.19
2018-03-06T22:41:05.754Z,71.98
2018-03-06T22:43:34.091Z,71.93
2018-03-06T22:46:02.451Z,72.19
2018-03-06T22:48:30.743Z,72.01
2018-03-06T22:50:59.083Z,72.16
2018-03-06T22:53:27.372Z,72.20
2018-03-06T22:55:55.707Z,72.27
2018-03-06T22:58:23.977Z,72.77
2018-03-06T23:00:52.288Z,72.72
2018-03-06T23:03:20.571Z,72.62
2018-03-06T23:05:48.887Z,72.93
2018-03-06T23:08:17.171Z,73.25
2018-03-06T23:10:45.468Z,73.19
2018-03-06T23:13:13.768Z,73.65
2018-03-06T23:15:42.083Z,73.38
2018-03-06T23:18:10.407Z,73.19
2018-03-06T23:20:39.655Z,73.79
2018-03-06T23:23:07.956Z,74.21
2018-03-06T23:25:36.246Z,74.05
2018-03-06T23:28:09.594Z,73.50
2018-03-06T23:30:37.892Z,73.06
2018-03-06T23:33:06.188Z,73.02
2018-03-06T23:35:34.463Z,72.95
2018-03-06T23:38:02.808Z,72.69
2018-03-06T23:40:31.085Z,72.92
2018-03-06T23:42:59.406Z,73.51
2018-03-06T23:45:27.691Z,73.42
2018-03-06T23:47:56.023Z,73.20
2018-03-06T23:50:24.295Z,73.64
2018-03-06T23:52:52.608Z,74.14
2018-03-06T23:55:20.883Z,74.43
2018-03-06T23:57:49.177Z,74.43
